Terminal Aerodrome Forecast
Issued by NWS

Home | Current Version | Previous Version | Text Only | Print | Product List | Glossary On
Versions: 1 2 3 4 5 6 7 8 9 10 11 12
642
FTUS42 KTBW 152327
TAFLAL
TAF
KLAL 152327Z 1600/1624 VRB03KT P6SM FEW045 SCT250
     FM160800 VRB03KT 5SM BR SCT020 SCT250
     FM161500 04005KT P6SM SCT040 BKN250=

USA.gov is the U.S. government's official web portal to all federal, state and local government web resources and services.